Time;durP1;ratioP1;P1;durP2;ratioP2;P2;SDS_P1;SDS_P2;PMS_P1;PMS_P2;Temp;Humidity;BMP_temperature;BMP_pressure;BME280_temperature;BME280_humidity;BME280_pressure;Samples;Min_cycle;Max_cycle;Signal;HPM_P1;HPM_P2
2021/06/16 00:01:41;;;;;;;;;;;;;;;;;;5082588;28;19915;-80
2021/06/16 00:04:07;;;;;;;;;;;;;;;;;;5083415;28;19911;-80
2021/06/16 00:06:33;;;;;;;;;;;;;;;;;;5082599;28;19908;-80
2021/06/16 00:08:58;;;;;;;;;;;;;;;;;;5115858;28;19916;-80
2021/06/16 00:11:23;;;;;;;;;;;;;;;;;;5082511;28;19908;-80
2021/06/16 00:13:48;;;;;;;;;;;;;;;;;;5082525;28;19915;-80
2021/06/16 00:16:13;;;;;;;;;;;;;;;;;;5098941;28;19907;-80
2021/06/16 00:18:39;;;;;;;;;;;;;;;;;;5099890;28;20005;-80
2021/06/16 00:21:04;;;;;;;;;;;;;;;;;;5082059;28;19908;-80
2021/06/16 00:23:29;;;;;;;;;;;;;;;;;;5082629;28;19931;-81
2021/06/16 00:25:54;;;;;;;;;;;;;;;;;;5082135;28;19968;-80
2021/06/16 00:28:19;;;;;;;;;;;;;;;;;;5098317;28;19911;-80
2021/06/16 00:30:45;;;;;;;;;;;;;;;;;;5098877;28;19916;-80
2021/06/16 00:33:10;;;;;;;;;;;;;;;;;;5098524;28;19915;-80
2021/06/16 00:35:35;;;;;;;;;;;;;;;;;;5099096;28;19908;-80
2021/06/16 00:38:00;;;;;;;;;;;;;;;;;;5081194;28;19956;-80
2021/06/16 00:40:26;;;;;;;;;;;;;;;;;;5098516;28;19907;-80
2021/06/16 00:42:51;;;;;;;;;;;;;;;;;;5098700;28;19907;-80
2021/06/16 00:45:17;;;;;;;;;;;;;;;;;;5098565;28;19907;-80
2021/06/16 00:47:42;;;;;;;;;;;;;;;;;;5081299;28;19930;-80
2021/06/16 00:50:09;;;;;;;;;;;;;;;;;;5098464;28;20290;-80
2021/06/16 00:52:34;;;;;;;;;;;;;;;;;;5098086;28;19908;-80
2021/06/16 00:54:59;;;;;;;;;;;;;;;;;;5097998;28;19931;-80
2021/06/16 00:57:25;;;;;;;;;;;;;;;;;;5081374;28;19907;-80
2021/06/16 00:59:50;;;;;;;;;;;;;;;;;;5080855;28;19907;-80
2021/06/16 01:02:15;;;;;;;;;;;;;;;;;;5097439;28;20010;-80
2021/06/16 01:04:40;;;;;;;;;;;;;;;;;;5097690;28;19961;-80
2021/06/16 01:07:09;;;;;;;;;;;;;;;;;;5080973;28;19907;-80
2021/06/16 01:09:36;;;;;;;;;;;;;;;;;;5097795;28;19911;-80
2021/06/16 01:12:03;;;;;;;;;;;;;;;;;;5098683;28;19964;-80
2021/06/16 01:14:30;;;;;;;;;;;;;;;;;;5116123;28;20002;-80
2021/06/16 01:16:56;;;;;;;;;;;;;;;;;;5098109;28;19911;-80
2021/06/16 01:19:28;;;;;;;;;;;;;;;;;;5098012;28;20273;-80
2021/06/16 01:21:54;;;;;;;;;;;;;;;;;;5097574;28;19915;-80
2021/06/16 01:24:19;;;;;;;;;;;;;;;;;;5097919;28;20365;-80
2021/06/16 01:26:48;;;;;;;;;;;;;;;;;;5081142;28;19912;-80
2021/06/16 01:29:14;;;;;;;;;;;;;;;;;;5098130;28;19912;-80
2021/06/16 01:31:39;;;;;;;;;;;;;;;;;;5097695;28;20004;-80
2021/06/16 01:34:05;;;;;;;;;;;;;;;;;;5097227;28;20376;-80
2021/06/16 01:36:30;;;;;;;;;;;;;;;;;;5097340;28;19908;-80
2021/06/16 01:38:55;;;;;;;;;;;;;;;;;;5080794;28;20374;-80
2021/06/16 01:41:20;;;;;;;;;;;;;;;;;;5115478;28;19914;-80
2021/06/16 01:43:47;;;;;;;;;;;;;;;;;;5097851;28;19908;-80
2021/06/16 01:46:12;;;;;;;;;;;;;;;;;;5097827;28;19907;-80
2021/06/16 01:48:37;;;;;;;;;;;;;;;;;;5097086;28;19968;-80
2021/06/16 01:51:03;;;;;;;;;;;;;;;;;;5097830;28;20293;-81
2021/06/16 01:53:28;;;;;;;;;;;;;;;;;;5097262;28;20286;-80
2021/06/16 01:55:53;;;;;;;;;;;;;;;;;;5080612;28;20362;-80
2021/06/16 01:58:18;;;;;;;;;;;;;;;;;;5097629;28;19911;-80
2021/06/16 02:00:44;;;;;;;;;;;;;;;;;;5079985;28;19930;-80
2021/06/16 02:03:09;;;;;;;;;;;;;;;;;;5081008;28;19907;-80
2021/06/16 02:05:34;;;;;;;;;;;;;;;;;;5097656;28;19914;-80
2021/06/16 02:08:02;;;;;;;;;;;;;;;;;;5080890;28;19961;-80
2021/06/16 02:10:29;;;;;;;;;;;;;;;;;;5115750;28;20120;-80
2021/06/16 02:12:57;;;;;;;;;;;;;;;;;;5100756;28;19965;-80
2021/06/16 02:15:22;;;;;;;;;;;;;;;;;;5101550;28;20380;-80
2021/06/16 02:17:48;;;;;;;;;;;;;;;;;;5100940;28;20031;-80
2021/06/16 02:20:13;;;;;;;;;;;;;;;;;;5101227;28;19907;-80
2021/06/16 02:22:38;;;;;;;;;;;;;;;;;;5084079;28;19972;-80
2021/06/16 02:25:04;;;;;;;;;;;;;;;;;;5100952;28;19908;-80
2021/06/16 02:27:29;;;;;;;;;;;;;;;;;;5100799;28;19907;-80
2021/06/16 02:29:54;;;;;;;;;;;;;;;;;;5083427;28;19915;-80
2021/06/16 02:32:19;;;;;;;;;;;;;;;;;;5100570;28;20438;-80
2021/06/16 02:34:44;;;;;;;;;;;;;;;;;;5083785;28;19908;-81
2021/06/16 02:37:11;;;;;;;;;;;;;;;;;;5084293;28;19914;-80
2021/06/16 02:39:53;;;;;;;;;;;;;;;;;;5100894;28;19955;-80
2021/06/16 02:42:18;;;;;;;;;;;;;;;;;;5100675;28;19950;-80
2021/06/16 02:44:43;;;;;;;;;;;;;;;;;;5100745;28;19907;-80
2021/06/16 02:47:09;;;;;;;;;;;;;;;;;;5083534;28;19907;-80
2021/06/16 02:49:36;;;;;;;;;;;;;;;;;;5083495;28;19912;-80
2021/06/16 02:52:01;;;;;;;;;;;;;;;;;;5100321;28;19907;-80
2021/06/16 02:54:28;;;;;;;;;;;;;;;;;;5100894;28;20042;-80
2021/06/16 02:56:53;;;;;;;;;;;;;;;;;;5100049;28;19908;-80
2021/06/16 02:59:18;;;;;;;;;;;;;;;;;;5083796;28;19914;-80
2021/06/16 03:01:44;;;;;;;;;;;;;;;;;;5100502;28;19945;-80
2021/06/16 03:04:09;;;;;;;;;;;;;;;;;;5101043;28;20401;-80
2021/06/16 03:06:35;;;;;;;;;;;;;;;;;;5100352;28;19908;-80
2021/06/16 03:09:00;;;;;;;;;;;;;;;;;;5082900;28;19961;-80
2021/06/16 03:11:25;;;;;;;;;;;;;;;;;;5100783;28;19907;-80
2021/06/16 03:13:51;;;;;;;;;;;;;;;;;;5083372;28;19960;-80
2021/06/16 03:16:16;;;;;;;;;;;;;;;;;;5099913;28;19947;-80
2021/06/16 03:18:42;;;;;;;;;;;;;;;;;;5082572;28;19914;-80
2021/06/16 03:21:07;;;;;;;;;;;;;;;;;;5100155;28;19914;-80
2021/06/16 03:23:33;;;;;;;;;;;;;;;;;;5099724;28;19907;-80
2021/06/16 03:25:58;;;;;;;;;;;;;;;;;;5099801;28;20393;-80
2021/06/16 03:28:23;;;;;;;;;;;;;;;;;;5082480;28;20041;-80
2021/06/16 03:30:50;;;;;;;;;;;;;;;;;;5113566;22;20274;-77
2021/06/16 03:33:15;;;;;;;;;;;;;;;;;;5116184;28;19911;-77
2021/06/16 03:35:40;;;;;;;;;;;;;;;;;;5080844;28;20331;-77
2021/06/16 03:38:05;;;;;;;;;;;;;;;;;;5097581;28;19931;-77
2021/06/16 03:40:30;;;;;;;;;;;;;;;;;;5097605;28;19914;-77
2021/06/16 03:42:56;;;;;;;;;;;;;;;;;;5097587;28;20316;-77
2021/06/16 03:45:21;;;;;;;;;;;;;;;;;;5098030;28;19960;-77
2021/06/16 03:47:46;;;;;;;;;;;;;;;;;;5097400;28;19911;-77
2021/06/16 03:50:15;;;;;;;;;;;;;;;;;;5097375;28;19930;-77
2021/06/16 03:52:40;;;;;;;;;;;;;;;;;;5115575;28;20263;-76
2021/06/16 03:55:06;;;;;;;;;;;;;;;;;;5097452;28;20045;-77
2021/06/16 03:57:31;;;;;;;;;;;;;;;;;;5115452;28;20301;-77
2021/06/16 03:59:56;;;;;;;;;;;;;;;;;;5097224;28;19988;-77
2021/06/16 04:02:22;;;;;;;;;;;;;;;;;;5097250;28;19915;-77
2021/06/16 04:04:47;;;;;;;;;;;;;;;;;;5096839;28;20281;-77
2021/06/16 04:07:16;;;;;;;;;;;;;;;;;;5083410;28;19961;-77
2021/06/16 04:09:41;;;;;;;;;;;;;;;;;;5081361;28;20312;-77
2021/06/16 04:12:07;;;;;;;;;;;;;;;;;;5056546;28;19913;-77
2021/06/16 04:14:32;;;;;;;;;;;;;;;;;;5074402;28;19988;-77
2021/06/16 04:16:57;;;;;;;;;;;;;;;;;;5074523;28;19909;-78
2021/06/16 04:19:23;;;;;;;;;;;;;;;;;;5057821;28;19955;-78
2021/06/16 04:21:48;;;;;;;;;;;;;;;;;;5056907;28;20405;-77
2021/06/16 04:24:13;;;;;;;;;;;;;;;;;;5073361;28;19909;-77
2021/06/16 04:26:38;;;;;;;;;;;;;;;;;;5073048;28;20333;-77
2021/06/16 04:29:04;;;;;;;;;;;;;;;;;;5056329;28;19912;-76
2021/06/16 04:31:29;;;;;;;;;;;;;;;;;;5056165;28;19916;-77
2021/06/16 04:33:54;;;;;;;;;;;;;;;;;;5072584;28;20420;-77
2021/06/16 04:36:19;;;;;;;;;;;;;;;;;;5074005;28;20317;-77
2021/06/16 04:38:44;;;;;;;;;;;;;;;;;;5072921;28;19909;-77
2021/06/16 04:41:10;;;;;;;;;;;;;;;;;;5073033;28;19915;-77
2021/06/16 04:43:35;;;;;;;;;;;;;;;;;;5073985;28;20341;-77
2021/06/16 04:46:00;;;;;;;;;;;;;;;;;;5072721;28;19908;-77
2021/06/16 04:48:25;;;;;;;;;;;;;;;;;;5072685;28;20329;-77
2021/06/16 04:50:51;;;;;;;;;;;;;;;;;;5073910;28;19908;-77
2021/06/16 04:53:16;;;;;;;;;;;;;;;;;;5073046;28;19908;-77
2021/06/16 04:55:41;;;;;;;;;;;;;;;;;;5058037;28;19915;-77
2021/06/16 04:58:06;;;;;;;;;;;;;;;;;;5074022;28;20019;-77
2021/06/16 05:00:31;;;;;;;;;;;;;;;;;;5070116;28;20371;-77
2021/06/16 05:02:57;;;;;;;;;;;;;;;;;;5072484;28;19966;-78
2021/06/16 05:05:22;;;;;;;;;;;;;;;;;;5058265;28;19909;-77
2021/06/16 05:07:48;;;;;;;;;;;;;;;;;;5072304;28;19919;-77
2021/06/16 05:10:13;;;;;;;;;;;;;;;;;;5090104;28;19934;-77
2021/06/16 05:12:38;;;;;;;;;;;;;;;;;;5092630;28;20297;-77
2021/06/16 05:15:04;;;;;;;;;;;;;;;;;;5092694;28;19915;-77
2021/06/16 05:17:29;;;;;;;;;;;;;;;;;;5092489;28;19935;-77
2021/06/16 05:19:57;;;;;;;;;;;;;;;;;;5092654;28;19912;-77
2021/06/16 05:22:23;;;;;;;;;;;;;;;;;;5093731;28;19908;-77
2021/06/16 05:24:48;;;;;;;;;;;;;;;;;;5092584;28;20015;-77
2021/06/16 05:27:15;;;;;;;;;;;;;;;;;;5089864;28;19908;-77
2021/06/16 05:29:40;;;;;;;;;;;;;;;;;;5072291;28;19919;-77
2021/06/16 05:32:05;;;;;;;;;;;;;;;;;;5072148;28;19912;-77
2021/06/16 05:34:31;;;;;;;;;;;;;;;;;;5072156;28;20350;-77
2021/06/16 05:36:56;;;;;;;;;;;;;;;;;;5073383;28;20030;-77
2021/06/16 05:39:21;;;;;;;;;;;;;;;;;;5073528;28;19994;-76
2021/06/16 05:41:46;;;;;;;;;;;;;;;;;;5072099;28;19919;-77
2021/06/16 05:44:12;;;;;;;;;;;;;;;;;;5078294;28;20363;-77
2021/06/16 05:46:37;;;;;;;;;;;;;;;;;;5075034;28;19912;-77
2021/06/16 05:49:02;;;;;;;;;;;;;;;;;;5084503;28;19919;-77
2021/06/16 05:51:27;;;;;;;;;;;;;;;;;;5097687;28;20338;-76
2021/06/16 05:53:52;;;;;;;;;;;;;;;;;;5091489;28;19915;-77
2021/06/16 05:56:18;;;;;;;;;;;;;;;;;;5076860;28;19921;-77
2021/06/16 05:58:43;;;;;;;;;;;;;;;;;;5096254;28;19911;-77
2021/06/16 06:01:08;;;;;;;;;;;;;;;;;;5087961;28;20282;-77
2021/06/16 06:03:34;;;;;;;;;;;;;;;;;;5080573;28;19916;-78
2021/06/16 06:05:59;;;;;;;;;;;;;;;;;;5089682;28;20260;-76
2021/06/16 06:08:24;;;;;;;;;;;;;;;;;;5076047;28;19952;-77
2021/06/16 06:10:50;;;;;;;;;;;;;;;;;;5087398;28;20430;-76
2021/06/16 06:13:15;;;;;;;;;;;;;;;;;;5084517;28;19920;-77
2021/06/16 06:15:40;;;;;;;;;;;;;;;;;;5095119;28;19908;-76
2021/06/16 06:18:05;;;;;;;;;;;;;;;;;;5089762;28;19970;-76
2021/06/16 06:20:30;;;;;;;;;;;;;;;;;;5077128;28;20374;-77
2021/06/16 06:22:56;;;;;;;;;;;;;;;;;;5073710;28;19961;-78
2021/06/16 06:25:22;;;;;;;;;;;;;;;;;;5097660;28;19908;-76
2021/06/16 06:27:47;;;;;;;;;;;;;;;;;;5085003;28;20285;-77
2021/06/16 06:30:12;;;;;;;;;;;;;;;;;;5096885;28;19916;-77
2021/06/16 06:32:37;;;;;;;;;;;;;;;;;;5095864;28;19908;-77
2021/06/16 06:35:02;;;;;;;;;;;;;;;;;;5096080;28;19957;-77
2021/06/16 06:37:28;;;;;;;;;;;;;;;;;;5095355;28;19908;-77
2021/06/16 06:39:53;;;;;;;;;;;;;;;;;;5095336;28;19951;-77
2021/06/16 06:42:18;;;;;;;;;;;;;;;;;;5096630;28;19908;-76
2021/06/16 06:44:43;;;;;;;;;;;;;;;;;;5095404;28;20274;-77
2021/06/16 06:47:09;;;;;;;;;;;;;;;;;;5095465;28;20374;-77
2021/06/16 06:49:34;;;;;;;;;;;;;;;;;;5096413;28;20277;-76
2021/06/16 06:51:59;;;;;;;;;;;;;;;;;;5095254;28;19957;-77
2021/06/16 06:54:24;;;;;;;;;;;;;;;;;;5095172;28;19915;-77
2021/06/16 06:56:49;;;;;;;;;;;;;;;;;;5096250;28;19908;-77
2021/06/16 06:59:15;;;;;;;;;;;;;;;;;;5096369;28;20275;-76
2021/06/16 07:01:40;;;;;;;;;;;;;;;;;;5094103;28;20369;-77
2021/06/16 07:04:05;;;;;;;;;;;;;;;;;;5095124;28;19915;-76
2021/06/16 07:06:30;;;;;;;;;;;;;;;;;;5096292;28;19955;-76
2021/06/16 07:08:56;;;;;;;;;;;;;;;;;;5095050;28;19919;-77
2021/06/16 07:11:21;;;;;;;;;;;;;;;;;;5077930;28;19908;-76
2021/06/16 07:13:46;;;;;;;;;;;;;;;;;;5094913;28;19951;-76
2021/06/16 07:16:11;;;;;;;;;;;;;;;;;;5095898;28;19908;-78
2021/06/16 07:18:37;;;;;;;;;;;;;;;;;;5094786;28;19923;-77
2021/06/16 07:21:02;;;;;;;;;;;;;;;;;;5094894;28;20282;-77
2021/06/16 07:23:27;;;;;;;;;;;;;;;;;;5094627;28;19918;-77
2021/06/16 07:25:52;;;;;;;;;;;;;;;;;;5094535;28;19908;-77
2021/06/16 07:28:17;;;;;;;;;;;;;;;;;;5094422;28;19912;-77
2021/06/16 07:30:43;;;;;;;;;;;;;;;;;;5095641;28;20282;-77
2021/06/16 07:33:08;;;;;;;;;;;;;;;;;;5095739;28;19908;-77
2021/06/16 07:35:34;;;;;;;;;;;;;;;;;;5094436;28;19915;-77
2021/06/16 07:37:59;;;;;;;;;;;;;;;;;;5094268;28;19934;-76
2021/06/16 07:40:24;;;;;;;;;;;;;;;;;;5094719;28;19908;-77
2021/06/16 07:42:49;;;;;;;;;;;;;;;;;;5096153;28;19908;-77
2021/06/16 07:45:14;;;;;;;;;;;;;;;;;;5094398;28;20278;-77
2021/06/16 07:47:40;;;;;;;;;;;;;;;;;;5093561;28;19935;-79
2021/06/16 07:50:05;;;;;;;;;;;;;;;;;;5092508;28;20397;-81
2021/06/16 07:52:30;;;;;;;;;;;;;;;;;;5075734;28;19934;-79
2021/06/16 07:54:56;;;;;;;;;;;;;;;;;;5092480;28;19929;-81
2021/06/16 07:57:21;;;;;;;;;;;;;;;;;;5091859;28;19912;-78
2021/06/16 07:59:46;;;;;;;;;;;;;;;;;;5073991;28;20182;-78
2021/06/16 08:02:11;;;;;;;;;;;;;;;;;;5092718;28;20285;-79
2021/06/16 08:04:40;;;;;;;;;;;;;;;;;;5090961;28;19916;-78
2021/06/16 08:07:10;;;;;;;;;;;;;;;;;;5089949;28;19918;-79
2021/06/16 08:09:35;;;;;;;;;;;;;;;;;;5089102;28;20397;-77
2021/06/16 08:12:00;;;;;;;;;;;;;;;;;;5089649;28;19912;-77
2021/06/16 08:14:25;;;;;;;;;;;;;;;;;;5091295;28;19918;-77
2021/06/16 08:16:50;;;;;;;;;;;;;;;;;;5091460;28;20668;-77
2021/06/16 08:19:16;;;;;;;;;;;;;;;;;;5089975;28;19911;-78
2021/06/16 08:21:42;;;;;;;;;;;;;;;;;;5089998;28;19915;-79
2021/06/16 08:24:07;;;;;;;;;;;;;;;;;;5090732;28;19951;-78
2021/06/16 08:26:34;;;;;;;;;;;;;;;;;;5089981;28;20008;-78
2021/06/16 08:28:59;;;;;;;;;;;;;;;;;;5089823;28;19911;-77
2021/06/16 08:31:24;;;;;;;;;;;;;;;;;;5090805;28;20389;-77
2021/06/16 08:33:49;;;;;;;;;;;;;;;;;;5089660;28;19912;-78
2021/06/16 08:36:15;;;;;;;;;;;;;;;;;;5089058;28;19915;-78
2021/06/16 08:38:40;;;;;;;;;;;;;;;;;;5089607;28;19919;-77
2021/06/16 08:41:07;;;;;;;;;;;;;;;;;;5089674;28;20003;-78
2021/06/16 08:43:37;;;;;;;;;;;;;;;;;;5089571;28;20428;-78
2021/06/16 08:46:04;;;;;;;;;;;;;;;;;;5089532;28;20367;-81
2021/06/16 08:48:29;;;;;;;;;;;;;;;;;;5091220;28;19912;-81
2021/06/16 08:50:54;;;;;;;;;;;;;;;;;;5091571;28;19985;-80
2021/06/16 08:53:19;;;;;;;;;;;;;;;;;;5091701;28;20427;-79
2021/06/16 08:55:45;;;;;;;;;;;;;;;;;;5092957;28;19908;-80
2021/06/16 08:58:10;;;;;;;;;;;;;;;;;;5092641;28;19911;-79
2021/06/16 09:00:35;;;;;;;;;;;;;;;;;;5090215;28;19939;-78
2021/06/16 09:03:00;;;;;;;;;;;;;;;;;;5089285;28;20342;-78
2021/06/16 09:05:38;;;;;;;;;;;;;;;;;;5089422;28;20332;-78
2021/06/16 09:08:13;;;;;;;;;;;;;;;;;;5088903;28;19912;-78
2021/06/16 09:10:39;;;;;;;;;;;;;;;;;;5089046;28;19919;-78
2021/06/16 09:13:09;;;;;;;;;;;;;;;;;;5071923;28;19912;-77
2021/06/16 09:15:36;;;;;;;;;;;;;;;;;;5090381;28;19967;-78
2021/06/16 09:18:01;;;;;;;;;;;;;;;;;;5088725;28;20336;-77
2021/06/16 09:20:27;;;;;;;;;;;;;;;;;;5090001;28;19961;-77
2021/06/16 09:23:05;;;;;;;;;;;;;;;;;;5071915;28;20290;-78
2021/06/16 09:25:31;;;;;;;;;;;;;;;;;;5088499;28;19916;-78
2021/06/16 09:27:56;;;;;;;;;;;;;;;;;;5088883;28;20291;-78
2021/06/16 09:30:24;;;;;;;;;;;;;;;;;;5089902;28;19920;-78
2021/06/16 09:32:53;;;;;;;;;;;;;;;;;;5071737;28;20387;-79
2021/06/16 09:35:28;;;;;;;;;;;;;;;;;;5088715;28;19912;-78
2021/06/16 09:37:54;;;;;;;;;;;;;;;;;;5071689;28;19919;-78
2021/06/16 09:40:39;;;;;;;;;;;;;;;;;;5088771;28;20384;-79
2021/06/16 09:43:08;;;;;;;;;;;;;;;;;;5071399;28;19935;-77
2021/06/16 09:45:34;;;;;;;;;;;;;;;;;;5088644;28;19916;-78
2021/06/16 09:48:17;;;;;;;;;;;;;;;;;;5071259;28;19921;-78
2021/06/16 09:50:42;;;;;;;;;;;;;;;;;;5088563;28;19912;-79
2021/06/16 09:53:07;;;;;;;;;;;;;;;;;;5089739;28;20427;-78
2021/06/16 09:55:33;;;;;;;;;;;;;;;;;;5089890;28;19930;-78
2021/06/16 09:58:03;;;;;;;;;;;;;;;;;;5083104;28;19958;-78
2021/06/16 10:00:29;;;;;;;;;;;;;;;;;;5069509;28;20307;-77
2021/06/16 10:03:13;;;;;;;;;;;;;;;;;;5068603;28;19961;-79
2021/06/16 10:05:57;;;;;;;;;;;;;;;;;;5072778;28;19912;-77
2021/06/16 10:08:23;;;;;;;;;;;;;;;;;;5073071;28;19916;-78
2021/06/16 10:10:49;;;;;;;;;;;;;;;;;;5088393;28;19977;-78
2021/06/16 10:13:14;;;;;;;;;;;;;;;;;;5089192;28;20361;-77
2021/06/16 10:15:39;;;;;;;;;;;;;;;;;;5088713;28;19914;-77
2021/06/16 10:18:04;;;;;;;;;;;;;;;;;;5089572;28;19912;-77
2021/06/16 10:20:29;;;;;;;;;;;;;;;;;;5089496;28;19931;-80
2021/06/16 10:22:55;;;;;;;;;;;;;;;;;;5089058;28;19916;-77
2021/06/16 10:25:20;;;;;;;;;;;;;;;;;;5089389;28;19947;-79
2021/06/16 10:27:45;;;;;;;;;;;;;;;;;;5088746;28;19919;-78
2021/06/16 10:30:15;;;;;;;;;;;;;;;;;;5071248;28;19922;-78
2021/06/16 10:32:41;;;;;;;;;;;;;;;;;;5090099;28;20034;-78
2021/06/16 10:35:07;;;;;;;;;;;;;;;;;;5093090;28;20499;-78
2021/06/16 10:37:34;;;;;;;;;;;;;;;;;;5092796;28;19916;-79
2021/06/16 10:40:24;;;;;;;;;;;;;;;;;;5086945;28;19961;-79
2021/06/16 10:42:58;;;;;;;;;;;;;;;;;;5076130;28;19908;-80
2021/06/16 10:45:26;;;;;;;;;;;;;;;;;;5095102;28;19912;-79
2021/06/16 10:47:54;;;;;;;;;;;;;;;;;;5075953;28;19998;-80
2021/06/16 10:50:20;;;;;;;;;;;;;;;;;;5093626;28;20007;-80
2021/06/16 10:53:05;;;;;;;;;;;;;;;;;;5092901;28;19998;-78
2021/06/16 10:55:49;;;;;;;;;;;;;;;;;;5120132;22;19966;-80
2021/06/16 10:58:15;;;;;;;;;;;;;;;;;;5115667;28;20002;-79
2021/06/16 11:00:40;;;;;;;;;;;;;;;;;;5106095;28;19942;-80
2021/06/16 11:03:06;;;;;;;;;;;;;;;;;;5106451;28;19969;-80
2021/06/16 11:05:32;;;;;;;;;;;;;;;;;;5105914;28;19998;-80
2021/06/16 11:07:59;;;;;;;;;;;;;;;;;;5104648;28;19914;-80
2021/06/16 11:10:24;;;;;;;;;;;;;;;;;;5089607;28;19907;-80
2021/06/16 11:12:50;;;;;;;;;;;;;;;;;;5105769;28;19929;-80
2021/06/16 11:15:29;;;;;;;;;;;;;;;;;;5106483;28;19911;-80
2021/06/16 11:17:54;;;;;;;;;;;;;;;;;;5106004;28;20301;-80
2021/06/16 11:20:23;;;;;;;;;;;;;;;;;;5088623;28;19961;-79
2021/06/16 11:22:49;;;;;;;;;;;;;;;;;;5104494;28;19964;-80
2021/06/16 11:25:17;;;;;;;;;;;;;;;;;;5105095;28;19907;-80
2021/06/16 11:27:52;;;;;;;;;;;;;;;;;;5105834;28;19912;-80
2021/06/16 11:30:30;;;;;;;;;;;;;;;;;;5105293;28;19941;-80
2021/06/16 11:33:14;;;;;;;;;;;;;;;;;;5104884;28;19912;-80
2021/06/16 11:35:40;;;;;;;;;;;;;;;;;;5124591;28;19908;-80
2021/06/16 11:38:05;;;;;;;;;;;;;;;;;;5087261;28;19914;-80
2021/06/16 11:40:31;;;;;;;;;;;;;;;;;;5087775;28;19979;-80
2021/06/16 11:42:57;;;;;;;;;;;;;;;;;;5087004;28;19908;-80
2021/06/16 11:45:24;;;;;;;;;;;;;;;;;;5088005;28;20382;-80
2021/06/16 11:47:51;;;;;;;;;;;;;;;;;;5104358;28;19965;-80
2021/06/16 11:50:16;;;;;;;;;;;;;;;;;;5121941;28;19918;-80
2021/06/16 11:52:54;;;;;;;;;;;;;;;;;;5086863;28;19908;-80
2021/06/16 11:55:37;;;;;;;;;;;;;;;;;;5086446;28;19912;-80
2021/06/16 11:58:18;;;;;;;;;;;;;;;;;;5105253;28;19919;-80
2021/06/16 12:00:43;;;;;;;;;;;;;;;;;;5105234;28;19919;-80
2021/06/16 12:03:13;;;;;;;;;;;;;;;;;;5085438;28;20302;-80
2021/06/16 12:05:38;;;;;;;;;;;;;;;;;;5096215;28;19912;-80
2021/06/16 12:08:04;;;;;;;;;;;;;;;;;;5092967;28;19914;-80
2021/06/16 12:10:29;;;;;;;;;;;;;;;;;;5086670;28;19907;-80
2021/06/16 12:12:59;;;;;;;;;;;;;;;;;;5103211;28;19937;-80
2021/06/16 12:15:43;;;;;;;;;;;;;;;;;;5088162;28;19907;-79
2021/06/16 12:18:10;;;;;;;;;;;;;;;;;;5123679;28;19907;-80
2021/06/16 12:20:38;;;;;;;;;;;;;;;;;;5067706;28;19908;-80
2021/06/16 12:23:22;;;;;;;;;;;;;;;;;;5082858;28;19958;-80
2021/06/16 12:25:47;;;;;;;;;;;;;;;;;;5103393;28;19908;-80
2021/06/16 12:28:14;;;;;;;;;;;;;;;;;;5067076;28;19916;-80
2021/06/16 12:30:40;;;;;;;;;;;;;;;;;;5085435;28;19938;-80
2021/06/16 12:33:12;;;;;;;;;;;;;;;;;;5067877;28;19907;-79
2021/06/16 12:35:42;;;;;;;;;;;;;;;;;;5066926;28;19908;-80
2021/06/16 12:38:07;;;;;;;;;;;;;;;;;;5068399;28;19957;-80
2021/06/16 12:40:33;;;;;;;;;;;;;;;;;;5067852;28;19907;-79
2021/06/16 12:42:58;;;;;;;;;;;;;;;;;;5067358;28;19967;-80
2021/06/16 12:45:30;;;;;;;;;;;;;;;;;;5066469;28;20006;-80
2021/06/16 12:47:58;;;;;;;;;;;;;;;;;;5101327;28;19908;-80
2021/06/16 12:50:27;;;;;;;;;;;;;;;;;;5065859;28;19912;-79
2021/06/16 12:52:52;;;;;;;;;;;;;;;;;;5083862;28;19961;-80
2021/06/16 12:55:17;;;;;;;;;;;;;;;;;;5062293;28;20333;-80
2021/06/16 12:57:43;;;;;;;;;;;;;;;;;;5063298;28;19987;-79
2021/06/16 13:00:13;;;;;;;;;;;;;;;;;;5062190;28;19971;-80
2021/06/16 13:02:38;;;;;;;;;;;;;;;;;;5081398;28;19916;-80
2021/06/16 13:05:07;;;;;;;;;;;;;;;;;;5062758;28;19908;-79
2021/06/16 13:07:39;;;;;;;;;;;;;;;;;;5063322;28;19919;-80
2021/06/16 13:10:08;;;;;;;;;;;;;;;;;;5080386;28;19913;-80
2021/06/16 13:12:33;;;;;;;;;;;;;;;;;;5061446;28;19991;-80
2021/06/16 13:15:06;;;;;;;;;;;;;;;;;;5064510;28;19954;-80
2021/06/16 13:17:44;;;;;;;;;;;;;;;;;;5045498;28;19958;-80
2021/06/16 13:20:10;;;;;;;;;;;;;;;;;;5062296;28;19991;-80
2021/06/16 13:22:36;;;;;;;;;;;;;;;;;;5063743;28;19944;-80
2021/06/16 13:25:02;;;;;;;;;;;;;;;;;;5062564;28;19976;-80
2021/06/16 13:27:27;;;;;;;;;;;;;;;;;;5064148;28;19947;-80
2021/06/16 13:29:59;;;;;;;;;;;;;;;;;;5062547;28;19995;-80
2021/06/16 13:32:25;;;;;;;;;;;;;;;;;;5062153;28;19908;-79
2021/06/16 13:34:50;;;;;;;;;;;;;;;;;;5061894;28;19919;-80
2021/06/16 13:37:15;;;;;;;;;;;;;;;;;;5063508;28;19915;-80
2021/06/16 13:39:40;;;;;;;;;;;;;;;;;;5063557;28;19909;-80
2021/06/16 13:42:05;;;;;;;;;;;;;;;;;;5079683;28;19938;-80
2021/06/16 13:44:31;;;;;;;;;;;;;;;;;;5063624;28;19962;-80
2021/06/16 13:46:57;;;;;;;;;;;;;;;;;;5063422;28;19912;-80
2021/06/16 13:49:22;;;;;;;;;;;;;;;;;;5063029;28;20287;-80
2021/06/16 13:51:47;;;;;;;;;;;;;;;;;;5063146;28;19909;-80
2021/06/16 13:54:12;;;;;;;;;;;;;;;;;;5061563;28;19908;-80
2021/06/16 13:56:38;;;;;;;;;;;;;;;;;;5079244;28;19916;-80
2021/06/16 13:59:03;;;;;;;;;;;;;;;;;;5064985;28;20370;-80
2021/06/16 14:01:30;;;;;;;;;;;;;;;;;;5083723;28;19908;-80
2021/06/16 14:03:55;;;;;;;;;;;;;;;;;;5099722;28;19908;-80
2021/06/16 14:06:20;;;;;;;;;;;;;;;;;;5098101;28;19908;-79
2021/06/16 14:08:45;;;;;;;;;;;;;;;;;;5101547;28;19919;-79
2021/06/16 14:11:10;;;;;;;;;;;;;;;;;;5084770;28;19908;-79
2021/06/16 14:13:36;;;;;;;;;;;;;;;;;;5084755;28;19930;-79
2021/06/16 14:16:01;;;;;;;;;;;;;;;;;;5067127;28;20010;-79
2021/06/16 14:18:26;;;;;;;;;;;;;;;;;;5084424;28;19914;-80
2021/06/16 14:20:52;;;;;;;;;;;;;;;;;;5067199;28;19911;-80
2021/06/16 14:23:17;;;;;;;;;;;;;;;;;;5084966;28;19908;-80
2021/06/16 14:25:42;;;;;;;;;;;;;;;;;;5083801;28;19957;-78
2021/06/16 14:28:07;;;;;;;;;;;;;;;;;;5082559;28;19944;-80
2021/06/16 14:30:32;;;;;;;;;;;;;;;;;;5081020;28;20708;-80
2021/06/16 14:32:59;;;;;;;;;;;;;;;;;;5080231;28;19911;-80
2021/06/16 14:35:24;;;;;;;;;;;;;;;;;;5063422;28;20558;-79
2021/06/16 14:37:49;;;;;;;;;;;;;;;;;;5079454;28;19914;-80
2021/06/16 14:40:15;;;;;;;;;;;;;;;;;;5081823;28;19912;-79
2021/06/16 14:42:43;;;;;;;;;;;;;;;;;;5080122;28;19914;-79
2021/06/16 14:45:08;;;;;;;;;;;;;;;;;;5063205;28;19962;-81
2021/06/16 14:47:34;;;;;;;;;;;;;;;;;;5080413;28;19912;-80
2021/06/16 14:49:59;;;;;;;;;;;;;;;;;;5079424;28;20334;-80
2021/06/16 14:52:24;;;;;;;;;;;;;;;;;;5081202;28;19911;-80
2021/06/16 14:54:49;;;;;;;;;;;;;;;;;;5079885;28;19908;-80
2021/06/16 14:57:16;;;;;;;;;;;;;;;;;;5079521;28;19912;-80
2021/06/16 14:59:41;;;;;;;;;;;;;;;;;;5065554;28;19916;-80
2021/06/16 15:02:07;;;;;;;;;;;;;;;;;;5040430;28;19914;-79
2021/06/16 15:04:32;;;;;;;;;;;;;;;;;;5053668;28;20446;-80
2021/06/16 15:06:57;;;;;;;;;;;;;;;;;;5073772;28;19912;-80
2021/06/16 15:09:22;;;;;;;;;;;;;;;;;;5082543;28;20384;-80
2021/06/16 15:11:48;;;;;;;;;;;;;;;;;;5081120;28;20438;-80
2021/06/16 15:14:13;;;;;;;;;;;;;;;;;;5080690;28;19915;-80
2021/06/16 15:16:38;;;;;;;;;;;;;;;;;;5069745;28;19908;-80
2021/06/16 15:20:20;;;;;;;;;;;;;;;;;;5107833;27;19920;-80
2021/06/16 15:22:45;;;;;;;;;;;;;;;;;;5080203;28;20288;-79
2021/06/16 15:25:11;;;;;;;;;;;;;;;;;;5073824;28;19916;-80
2021/06/16 15:27:37;;;;;;;;;;;;;;;;;;5094050;28;19967;-80
2021/06/16 15:30:03;;;;;;;;;;;;;;;;;;5040531;28;19913;-80
2021/06/16 15:32:28;;;;;;;;;;;;;;;;;;5056832;28;19913;-80
2021/06/16 15:34:56;;;;;;;;;;;;;;;;;;5039515;28;19913;-80
2021/06/16 15:37:22;;;;;;;;;;;;;;;;;;5042424;28;19921;-80
2021/06/16 15:39:47;;;;;;;;;;;;;;;;;;5044669;28;19924;-81
2021/06/16 15:42:16;;;;;;;;;;;;;;;;;;5043993;28;19956;-80
2021/06/16 15:44:41;;;;;;;;;;;;;;;;;;5043242;28;19924;-81
2021/06/16 15:47:06;;;;;;;;;;;;;;;;;;5041840;28;19917;-81
2021/06/16 15:49:32;;;;;;;;;;;;;;;;;;5035551;28;19918;-80
2021/06/16 15:51:57;;;;;;;;;;;;;;;;;;5053100;28;19921;-81
2021/06/16 15:54:22;;;;;;;;;;;;;;;;;;5053977;28;19924;-80
2021/06/16 15:56:47;;;;;;;;;;;;;;;;;;5036622;28;19917;-81
2021/06/16 15:59:12;;;;;;;;;;;;;;;;;;5051103;28;19921;-80
2021/06/16 16:01:38;;;;;;;;;;;;;;;;;;5069997;28;19949;-81
2021/06/16 16:04:04;;;;;;;;;;;;;;;;;;5054250;28;20765;-81
2021/06/16 16:06:30;;;;;;;;;;;;;;;;;;5035797;28;19921;-82
2021/06/16 16:08:55;;;;;;;;;;;;;;;;;;5032724;28;19989;-81
2021/06/16 16:11:20;;;;;;;;;;;;;;;;;;5051323;28;19918;-81
2021/06/16 16:13:46;;;;;;;;;;;;;;;;;;5055873;28;19999;-81
2021/06/16 16:16:11;;;;;;;;;;;;;;;;;;5039633;28;19921;-83
2021/06/16 16:18:38;;;;;;;;;;;;;;;;;;5055842;28;20248;-82
2021/06/16 16:21:03;;;;;;;;;;;;;;;;;;5038780;28;20394;-82
2021/06/16 16:23:29;;;;;;;;;;;;;;;;;;5056386;28;19921;-82
2021/06/16 16:25:54;;;;;;;;;;;;;;;;;;5053995;28;19962;-82
2021/06/16 16:28:20;;;;;;;;;;;;;;;;;;5051132;28;19917;-81
2021/06/16 16:30:50;;;;;;;;;;;;;;;;;;5026829;28;19964;-82
2021/06/16 16:33:16;;;;;;;;;;;;;;;;;;5021622;28;19913;-82
2021/06/16 16:35:41;;;;;;;;;;;;;;;;;;5035935;28;19923;-82
2021/06/16 16:38:06;;;;;;;;;;;;;;;;;;5035525;28;19940;-82
2021/06/16 16:40:31;;;;;;;;;;;;;;;;;;5019216;28;20367;-81
2021/06/16 16:42:57;;;;;;;;;;;;;;;;;;5016111;28;19940;-81